Time;durP1;ratioP1;P1;durP2;ratioP2;P2;SDS_P1;SDS_P2;PMS_P1;PMS_P2;Temp;Humidity;BMP_temperature;BMP_pressure;BME280_temperature;BME280_humidity;BME280_pressure;Samples;Min_cycle;Max_cycle;Signal;HPM_P1;HPM_P2
2021/07/23 00:00:32;;;;;;;7.25;4.00;;;15.20;99.90;;;;;;1920110;73;21641;-71
2021/07/23 00:03:00;;;;;;;9.45;4.03;;;15.20;99.90;;;;;;1923057;74;21105;-71
2021/07/23 00:05:27;;;;;;;6.87;3.25;;;15.10;99.90;;;;;;1922067;74;21070;-71
2021/07/23 00:07:54;;;;;;;7.37;4.03;;;15.10;99.90;;;;;;1925517;74;21139;-71
2021/07/23 00:10:22;;;;;;;5.58;3.60;;;15.30;99.90;;;;;;1925828;74;21539;-71
2021/07/23 00:12:49;;;;;;;8.05;3.92;;;15.30;99.90;;;;;;1916568;74;21081;-71
2021/07/23 00:15:17;;;;;;;5.15;3.52;;;15.20;99.90;;;;;;1923808;74;21089;-72
2021/07/23 00:17:45;;;;;;;6.97;3.92;;;15.10;99.90;;;;;;1925459;74;21167;-72
2021/07/23 00:20:12;;;;;;;9.50;3.87;;;15.10;99.90;;;;;;1912370;73;21095;-72
2021/07/23 00:22:40;;;;;;;7.20;3.72;;;15.20;99.90;;;;;;1913028;74;21208;-72
2021/07/23 00:25:08;;;;;;;8.38;3.77;;;15.10;99.90;;;;;;1917934;74;21085;-71
2021/07/23 00:27:36;;;;;;;9.30;4.12;;;15.10;99.90;;;;;;1908529;74;22234;-71
2021/07/23 00:30:06;;;;;;;7.22;4.30;;;15.20;99.90;;;;;;1909772;74;21086;-73
2021/07/23 00:32:35;;;;;;;7.60;4.75;;;15.40;99.90;;;;;;1923578;74;21492;-72
2021/07/23 00:35:03;;;;;;;8.63;4.80;;;15.40;99.90;;;;;;1925585;74;21578;-72
2021/07/23 00:37:31;;;;;;;6.62;4.62;;;15.40;99.90;;;;;;1923437;74;21113;-72
2021/07/23 00:39:58;;;;;;;8.38;5.05;;;15.40;99.90;;;;;;1921317;74;21070;-72
2021/07/23 00:42:42;;;;;;;10.10;5.00;;;15.50;99.90;;;;;;1917013;73;21472;-71
2021/07/23 00:45:11;;;;;;;7.75;4.50;;;15.50;99.90;;;;;;1915374;74;21074;-73
2021/07/23 00:47:42;;;;;;;11.43;4.65;;;15.40;99.90;;;;;;1925764;74;21077;-72
2021/07/23 00:50:10;;;;;;;6.85;4.65;;;15.20;99.90;;;;;;1928996;74;21030;-73
2021/07/23 00:52:39;;;;;;;10.98;4.37;;;15.20;99.90;;;;;;1914356;74;21144;-72
2021/07/23 00:55:09;;;;;;;7.87;4.62;;;15.20;99.90;;;;;;1928379;73;21023;-72
2021/07/23 00:57:37;;;;;;;9.33;5.35;;;15.10;99.90;;;;;;1924379;74;21091;-73
2021/07/23 01:00:06;;;;;;;6.22;4.80;;;15.10;99.90;;;;;;1921516;74;21159;-71
2021/07/23 01:02:34;;;;;;;6.87;4.90;;;15.20;99.90;;;;;;1918076;73;21072;-72
2021/07/23 01:05:01;;;;;;;9.58;5.05;;;15.30;99.90;;;;;;1967669;73;21077;-72
2021/07/23 01:07:29;;;;;;;11.50;5.12;;;15.30;99.90;;;;;;1917226;72;21072;-73
2021/07/23 01:10:01;;;;;;;8.98;5.10;;;15.20;99.90;;;;;;1943063;73;21066;-74
2021/07/23 01:12:33;;;;;;;11.50;5.53;;;15.10;99.90;;;;;;1934094;73;21078;-71
2021/07/23 01:15:01;;;;;;;10.98;5.17;;;14.90;99.90;;;;;;1943053;73;21070;-73
2021/07/23 01:17:28;;;;;;;11.65;5.12;;;15.00;99.90;;;;;;1944005;74;21024;-72
2021/07/23 01:20:16;;;;;;;8.30;5.28;;;14.90;99.90;;;;;;1936267;72;21120;-72
2021/07/23 01:22:44;;;;;;;8.50;5.10;;;14.90;99.90;;;;;;1937470;72;21595;-71
2021/07/23 01:25:13;;;;;;;10.00;5.15;;;14.90;99.90;;;;;;1942181;72;21027;-72
2021/07/23 01:27:48;;;;;;;8.03;4.78;;;14.90;99.90;;;;;;1946922;72;21047;-72
2021/07/23 01:30:15;;;;;;;10.63;4.92;;;15.00;99.90;;;;;;1931925;73;21600;-72
2021/07/23 01:32:42;;;;;;;8.28;5.08;;;15.00;99.90;;;;;;1944168;73;21702;-71
2021/07/23 01:35:11;;;;;;;9.20;5.42;;;15.10;99.90;;;;;;1938753;74;21037;-72
2021/07/23 01:37:40;;;;;;;8.10;5.40;;;15.20;99.90;;;;;;1931152;74;21075;-72
2021/07/23 01:40:08;;;;;;;11.73;6.22;;;15.20;99.90;;;;;;1926282;73;21046;-72
2021/07/23 01:42:37;;;;;;;10.78;5.40;;;15.20;99.90;;;;;;1920085;74;21095;-72
2021/07/23 01:45:05;;;;;;;8.63;4.97;;;15.30;99.90;;;;;;1923839;73;21170;-72
2021/07/23 01:47:32;;;;;;;6.35;4.85;;;15.40;99.90;;;;;;1924451;73;21090;-72
2021/07/23 01:50:00;;;;;;;10.53;5.28;;;15.50;99.90;;;;;;1924987;73;21073;-72
2021/07/23 01:52:29;;;;;;;9.18;5.20;;;15.50;99.90;;;;;;1929918;73;21027;-72
2021/07/23 01:54:57;;;;;;;11.95;5.08;;;15.50;99.90;;;;;;1933480;72;21412;-72
2021/07/23 01:57:25;;;;;;;10.72;5.03;;;15.40;99.90;;;;;;1938892;73;21414;-72
2021/07/23 01:59:52;;;;;;;7.97;4.72;;;15.50;99.90;;;;;;1939589;73;21583;-72
2021/07/23 02:02:20;;;;;;;8.20;4.83;;;15.60;99.90;;;;;;1937925;74;21063;-71
2021/07/23 02:04:47;;;;;;;12.90;5.83;;;15.60;99.90;;;;;;1943397;72;21039;-71
2021/07/23 02:07:15;;;;;;;11.15;5.00;;;15.80;99.90;;;;;;1946228;74;21536;-72
2021/07/23 02:09:42;;;;;;;10.30;4.95;;;15.80;99.90;;;;;;1935682;72;21096;-72
2021/07/23 02:12:10;;;;;;;9.40;4.78;;;15.80;99.90;;;;;;1930345;74;21054;-72
2021/07/23 02:14:38;;;;;;;11.88;5.10;;;15.80;99.90;;;;;;1938199;72;21060;-71
2021/07/23 02:17:05;;;;;;;13.05;5.90;;;15.80;99.90;;;;;;1946101;74;21063;-71
2021/07/23 02:19:33;;;;;;;8.95;4.58;;;15.80;99.90;;;;;;1937327;72;21057;-71
2021/07/23 02:22:00;;;;;;;8.28;4.33;;;15.80;99.90;;;;;;1932744;73;21057;-72
2021/07/23 02:24:28;;;;;;;14.13;4.42;;;15.80;99.90;;;;;;1935638;72;21561;-72
2021/07/23 02:26:55;;;;;;;11.30;4.95;;;15.90;99.90;;;;;;1936426;73;21076;-72
2021/07/23 02:29:23;;;;;;;10.23;4.67;;;15.90;99.90;;;;;;1929198;73;21296;-72
2021/07/23 02:31:50;;;;;;;8.08;4.50;;;16.00;99.90;;;;;;1903834;75;21548;-72
2021/07/23 02:34:18;;;;;;;9.60;4.85;;;16.00;99.90;;;;;;1920169;74;21085;-72
2021/07/23 02:36:45;;;;;;;9.78;5.35;;;16.00;99.90;;;;;;1921345;74;21160;-72
2021/07/23 02:39:13;;;;;;;10.10;5.08;;;16.10;99.90;;;;;;1905788;74;21089;-72
2021/07/23 02:41:40;;;;;;;10.93;5.03;;;16.10;99.90;;;;;;1923919;73;21183;-72
2021/07/23 02:44:08;;;;;;;9.80;5.15;;;16.00;99.90;;;;;;1921351;73;22566;-73
2021/07/23 02:46:35;;;;;;;9.43;5.58;;;16.00;99.90;;;;;;1924068;73;21109;-72
2021/07/23 02:49:03;;;;;;;9.83;5.12;;;16.00;99.90;;;;;;1916352;74;21051;-72
2021/07/23 02:51:30;;;;;;;12.28;5.45;;;16.10;99.90;;;;;;1907902;73;21106;-72
2021/07/23 02:53:58;;;;;;;11.35;5.70;;;16.00;99.90;;;;;;1914825;74;21461;-72
2021/07/23 02:56:27;;;;;;;13.15;5.95;;;16.00;99.90;;;;;;1914011;73;21091;-72
2021/07/23 02:58:54;;;;;;;11.30;5.92;;;16.10;99.90;;;;;;1924867;73;21073;-72
2021/07/23 03:01:22;;;;;;;11.40;5.50;;;16.10;99.90;;;;;;1915188;73;21117;-72
2021/07/23 03:03:49;;;;;;;10.45;5.72;;;16.10;99.90;;;;;;1908476;74;21104;-72
2021/07/23 03:06:17;;;;;;;18.80;5.60;;;16.10;99.90;;;;;;1921691;74;21162;-71
2021/07/23 03:08:44;;;;;;;15.13;6.03;;;16.10;99.90;;;;;;1914683;74;21078;-71
2021/07/23 03:11:12;;;;;;;8.55;5.87;;;16.10;99.90;;;;;;1908099;74;21185;-71
2021/07/23 03:13:39;;;;;;;12.43;6.85;;;16.10;99.90;;;;;;1921308;73;21587;-72
2021/07/23 03:16:16;;;;;;;14.15;7.37;;;16.10;99.90;;;;;;1925224;74;21089;-71
2021/07/23 03:18:44;;;;;;;16.25;7.30;;;16.20;99.90;;;;;;1925105;74;21586;-71
2021/07/23 03:21:12;;;;;;;13.93;6.62;;;16.20;99.90;;;;;;1925029;74;21607;-71
2021/07/23 03:23:39;;;;;;;17.17;8.25;;;16.20;99.90;;;;;;1913109;74;21095;-72
2021/07/23 03:26:08;;;;;;;15.83;8.60;;;16.20;99.90;;;;;;1948192;73;21036;-72
2021/07/23 03:28:36;;;;;;;16.90;9.58;;;16.20;99.90;;;;;;1932621;74;21138;-72
2021/07/23 03:31:03;;;;;;;19.50;9.58;;;16.20;99.90;;;;;;1929046;74;21072;-72
2021/07/23 03:33:31;;;;;;;19.87;9.43;;;16.20;99.90;;;;;;1937520;73;21030;-71
2021/07/23 03:35:58;;;;;;;22.42;9.70;;;16.20;99.90;;;;;;1934790;73;21289;-71
2021/07/23 03:38:26;;;;;;;22.07;9.83;;;16.20;99.90;;;;;;1938294;73;21542;-72
2021/07/23 03:40:53;;;;;;;22.35;10.45;;;16.20;99.90;;;;;;1910190;74;21062;-72
2021/07/23 03:43:21;;;;;;;21.90;9.83;;;16.20;99.90;;;;;;1896721;74;21080;-72
2021/07/23 03:45:48;;;;;;;20.15;9.03;;;16.20;99.90;;;;;;1945451;73;21082;-71
2021/07/23 03:48:16;;;;;;;21.33;10.08;;;16.20;99.90;;;;;;1945080;73;21120;-72
2021/07/23 03:50:43;;;;;;;15.58;8.83;;;16.10;99.90;;;;;;1945206;72;21262;-72
2021/07/23 03:53:11;;;;;;;21.95;9.90;;;16.10;99.90;;;;;;1943805;73;21117;-72
2021/07/23 03:55:38;;;;;;;20.95;10.45;;;16.20;99.90;;;;;;1944002;72;21152;-70
2021/07/23 03:58:06;;;;;;;18.27;10.30;;;16.20;99.90;;;;;;1941865;73;21430;-71
2021/07/23 04:00:33;;;;;;;19.90;10.30;;;16.20;99.90;;;;;;1934205;72;21037;-71
2021/07/23 04:03:01;;;;;;;20.62;10.28;;;16.20;99.90;;;;;;1944796;73;21041;-71
2021/07/23 04:05:28;;;;;;;21.60;10.80;;;16.10;99.90;;;;;;1941255;72;21050;-71
2021/07/23 04:07:59;;;;;;;18.85;10.40;;;16.20;99.90;;;;;;1938983;74;21070;-71
2021/07/23 04:10:26;;;;;;;18.37;9.18;;;16.20;99.90;;;;;;1933048;72;21098;-71
2021/07/23 04:12:54;;;;;;;15.83;9.98;;;16.20;99.90;;;;;;1929575;74;21077;-71
2021/07/23 04:15:21;;;;;;;20.95;10.58;;;16.10;99.90;;;;;;1933211;73;21224;-71
2021/07/23 04:17:49;;;;;;;18.62;10.45;;;16.20;99.90;;;;;;1941808;73;21102;-71
2021/07/23 04:20:17;;;;;;;22.50;10.68;;;16.20;99.90;;;;;;1944600;72;21535;-72
2021/07/23 04:22:44;;;;;;;16.62;10.48;;;16.20;99.90;;;;;;1935340;72;21133;-72
2021/07/23 04:25:12;;;;;;;17.75;11.20;;;16.30;99.90;;;;;;1937132;72;21557;-72
2021/07/23 04:27:40;;;;;;;16.82;10.35;;;16.30;99.90;;;;;;1937828;72;21072;-72
2021/07/23 04:30:08;;;;;;;14.65;9.78;;;16.20;99.90;;;;;;1933108;72;22127;-72
2021/07/23 04:32:35;;;;;;;15.40;10.20;;;16.30;99.90;;;;;;1934501;73;22183;-71
2021/07/23 04:35:03;;;;;;;17.15;9.55;;;16.30;99.90;;;;;;1939842;72;21144;-72
2021/07/23 04:37:30;;;;;;;17.10;9.25;;;16.30;99.90;;;;;;1945500;74;21082;-72
2021/07/23 04:39:58;;;;;;;17.12;9.68;;;16.30;99.90;;;;;;1943994;72;21093;-72
2021/07/23 04:42:25;;;;;;;19.25;9.85;;;16.30;99.90;;;;;;1942697;72;21575;-72
2021/07/23 04:44:53;;;;;;;15.63;9.53;;;16.30;99.90;;;;;;1899423;74;21591;-72
2021/07/23 04:47:20;;;;;;;20.27;9.85;;;16.40;99.90;;;;;;1924884;73;21179;-72
2021/07/23 04:49:48;;;;;;;16.82;11.08;;;16.30;99.90;;;;;;1921393;74;21450;-72
2021/07/23 04:52:16;;;;;;;18.85;9.83;;;16.30;99.90;;;;;;1897820;74;21094;-72
2021/07/23 04:54:43;;;;;;;16.35;9.98;;;16.30;99.90;;;;;;1903481;73;21177;-72
2021/07/23 04:57:16;;;;;;;18.35;9.83;;;16.30;99.90;;;;;;1905472;74;21149;-72
2021/07/23 04:59:44;;;;;;;16.62;10.35;;;16.30;99.90;;;;;;1923678;74;21190;-72
2021/07/23 05:02:11;;;;;;;19.60;10.08;;;16.40;99.90;;;;;;1923436;73;21587;-72
2021/07/23 05:04:39;;;;;;;15.95;9.08;;;16.40;99.90;;;;;;1923306;73;21567;-73
2021/07/23 05:07:06;;;;;;;17.40;9.40;;;16.40;99.90;;;;;;1917248;73;21163;-73
2021/07/23 05:09:34;;;;;;;18.40;10.05;;;16.40;99.90;;;;;;1914308;74;21045;-72
2021/07/23 05:12:02;;;;;;;16.62;8.95;;;16.40;99.90;;;;;;1919275;74;21113;-73
2021/07/23 05:14:31;;;;;;;13.18;8.88;;;16.40;99.90;;;;;;1925768;74;21159;-73
2021/07/23 05:17:00;;;;;;;16.50;9.25;;;16.50;99.90;;;;;;1924886;74;21070;-73
2021/07/23 05:19:28;;;;;;;15.15;8.88;;;16.40;99.90;;;;;;1922713;74;21565;-73
2021/07/23 05:21:56;;;;;;;15.32;8.75;;;16.50;99.90;;;;;;1907073;73;21668;-73
2021/07/23 05:24:23;;;;;;;19.23;9.90;;;16.50;99.90;;;;;;1921180;74;21520;-72
2021/07/23 05:26:51;;;;;;;16.57;8.80;;;16.50;99.90;;;;;;1925495;74;21074;-72
2021/07/23 05:29:18;;;;;;;16.60;10.15;;;16.50;99.90;;;;;;1918708;73;21256;-71
2021/07/23 05:31:46;;;;;;;14.60;9.73;;;16.60;99.90;;;;;;1925110;73;21126;-72
2021/07/23 05:34:13;;;;;;;20.92;10.95;;;16.60;99.90;;;;;;1923330;74;21097;-72
2021/07/23 05:36:40;;;;;;;16.70;10.93;;;16.60;99.90;;;;;;1921795;74;21043;-72
2021/07/23 05:39:11;;;;;;;19.00;10.65;;;16.60;99.90;;;;;;1925603;74;21097;-72
2021/07/23 05:41:38;;;;;;;21.17;11.45;;;16.60;99.90;;;;;;1934927;72;21181;-69
2021/07/23 05:44:06;;;;;;;18.20;11.38;;;16.60;99.90;;;;;;1949966;72;21557;-69
2021/07/23 05:46:34;;;;;;;18.60;11.78;;;16.50;99.90;;;;;;1956526;72;21082;-69
2021/07/23 05:49:01;;;;;;;18.37;10.90;;;16.60;99.90;;;;;;1986817;72;21158;-69
2021/07/23 05:51:29;;;;;;;17.80;11.38;;;16.60;99.90;;;;;;1955122;72;21199;-69
2021/07/23 05:53:56;;;;;;;18.10;10.65;;;16.60;99.90;;;;;;1948274;73;21555;-68
2021/07/23 05:56:24;;;;;;;18.60;10.90;;;16.60;99.90;;;;;;1946387;72;21093;-70
2021/07/23 05:58:51;;;;;;;21.33;12.13;;;16.60;99.90;;;;;;1934831;73;21094;-69
2021/07/23 06:01:19;;;;;;;21.95;11.43;;;16.60;99.90;;;;;;1938712;73;21134;-69
2021/07/23 06:03:46;;;;;;;17.25;11.22;;;16.60;99.90;;;;;;1917171;74;21524;-69
2021/07/23 06:06:14;;;;;;;20.15;11.85;;;16.70;99.90;;;;;;1916243;73;21162;-70
2021/07/23 06:08:42;;;;;;;21.12;12.63;;;16.70;99.90;;;;;;1917076;74;21172;-70
2021/07/23 06:11:09;;;;;;;19.90;12.07;;;16.70;99.90;;;;;;1917111;75;21137;-68
2021/07/23 06:13:37;;;;;;;19.23;11.28;;;16.70;99.90;;;;;;1916776;75;21070;-70
2021/07/23 06:16:06;;;;;;;15.58;10.88;;;16.80;99.90;;;;;;1917524;75;21553;-69
2021/07/23 06:18:34;;;;;;;16.75;10.90;;;16.70;99.90;;;;;;1916139;73;21140;-68
2021/07/23 06:21:02;;;;;;;16.10;10.13;;;16.70;99.90;;;;;;1916967;73;21070;-69
2021/07/23 06:23:30;;;;;;;18.12;11.35;;;16.70;99.90;;;;;;1958211;73;21097;-70
2021/07/23 06:25:58;;;;;;;18.37;11.28;;;16.70;99.90;;;;;;1951960;73;21655;-69
2021/07/23 06:28:25;;;;;;;18.07;11.83;;;16.70;99.90;;;;;;1950759;73;21673;-70
2021/07/23 06:31:01;;;;;;;19.45;12.45;;;16.80;99.90;;;;;;1959197;72;21069;-70
2021/07/23 06:33:28;;;;;;;23.27;12.30;;;16.80;99.90;;;;;;1947571;72;21073;-69
2021/07/23 06:35:56;;;;;;;20.50;12.28;;;16.80;99.90;;;;;;1952601;72;21175;-69
2021/07/23 06:38:24;;;;;;;21.35;13.38;;;16.80;99.90;;;;;;1955306;73;21155;-67
2021/07/23 06:40:53;;;;;;;21.17;13.05;;;16.80;99.90;;;;;;1956737;72;21103;-68
2021/07/23 06:43:21;;;;;;;22.20;13.22;;;16.80;99.90;;;;;;1955599;72;21117;-69
2021/07/23 06:45:56;;;;;;;19.87;13.15;;;16.80;99.90;;;;;;1965788;71;21054;-69
2021/07/23 06:48:23;;;;;;;21.95;13.13;;;16.90;99.90;;;;;;1956260;72;21037;-68
2021/07/23 06:50:51;;;;;;;18.10;12.82;;;16.90;99.90;;;;;;1960410;72;21124;-68
2021/07/23 06:53:20;;;;;;;18.25;11.08;;;16.90;99.90;;;;;;1957811;72;21093;-68
2021/07/23 06:55:47;;;;;;;23.70;14.00;;;16.90;99.90;;;;;;1955372;72;21135;-68
2021/07/23 06:58:15;;;;;;;22.40;12.82;;;16.90;99.90;;;;;;1953409;72;21108;-68
2021/07/23 07:00:43;;;;;;;23.87;13.25;;;17.00;99.90;;;;;;1955993;72;21470;-68
2021/07/23 07:03:10;;;;;;;22.73;12.33;;;17.00;99.90;;;;;;1978777;72;21691;-68
2021/07/23 07:05:38;;;;;;;21.93;13.72;;;17.10;99.90;;;;;;1957734;72;21426;-68
2021/07/23 07:08:06;;;;;;;18.92;11.78;;;17.10;99.90;;;;;;1950338;72;21039;-69
2021/07/23 07:10:33;;;;;;;18.80;11.53;;;17.10;99.90;;;;;;1972091;72;21524;-69
2021/07/23 07:13:01;;;;;;;20.62;11.33;;;17.20;99.90;;;;;;1962700;72;21117;-67
2021/07/23 07:15:29;;;;;;;19.65;12.43;;;17.30;99.90;;;;;;1952270;72;21158;-68
2021/07/23 07:17:58;;;;;;;18.32;10.63;;;17.40;99.90;;;;;;1964957;72;21174;-69
2021/07/23 07:20:26;;;;;;;20.70;9.70;;;17.40;99.90;;;;;;1954996;72;20988;-68
2021/07/23 07:22:54;;;;;;;16.52;9.55;;;17.40;99.90;;;;;;1956933;72;21204;-68
2021/07/23 07:25:26;;;;;;;15.38;8.95;;;17.40;99.90;;;;;;1962620;72;21076;-68
2021/07/23 07:27:54;;;;;;;12.78;8.93;;;17.50;99.90;;;;;;1984066;72;21123;-68
2021/07/23 07:30:22;;;;;;;13.10;8.75;;;17.50;99.90;;;;;;1963180;72;21476;-68
2021/07/23 07:32:50;;;;;;;22.55;9.05;;;17.60;99.90;;;;;;1956384;73;20995;-68
2021/07/23 07:35:17;;;;;;;16.52;9.00;;;17.60;99.90;;;;;;1957915;72;21091;-68
2021/07/23 07:37:45;;;;;;;15.23;8.28;;;17.60;99.90;;;;;;1955747;73;21022;-69
2021/07/23 07:40:13;;;;;;;17.05;9.88;;;17.60;99.90;;;;;;1917959;75;21020;-69
2021/07/23 07:42:41;;;;;;;14.55;9.80;;;17.60;99.90;;;;;;1891592;75;21230;-69
2021/07/23 07:45:08;;;;;;;16.60;9.95;;;17.60;99.90;;;;;;1887540;74;21198;-69
2021/07/23 07:47:36;;;;;;;16.55;9.98;;;17.60;99.90;;;;;;1883225;76;21038;-69
2021/07/23 07:50:04;;;;;;;19.65;11.15;;;17.60;99.90;;;;;;1899192;75;21165;-69
2021/07/23 07:52:32;;;;;;;18.37;10.93;;;17.60;99.90;;;;;;1915634;73;21087;-70
2021/07/23 07:54:59;;;;;;;20.17;11.15;;;17.60;99.90;;;;;;1917091;74;21516;-69
2021/07/23 07:57:27;;;;;;;18.15;11.35;;;17.60;99.90;;;;;;1919124;73;21099;-68
2021/07/23 07:59:54;;;;;;;18.12;11.38;;;17.60;99.90;;;;;;1916748;73;21066;-69
2021/07/23 08:02:22;;;;;;;23.05;13.03;;;17.50;99.90;;;;;;1950700;72;21652;-68
2021/07/23 08:04:49;;;;;;;16.67;11.28;;;17.60;99.90;;;;;;1955600;73;21606;-68
2021/07/23 08:07:28;;;;;;;21.05;12.05;;;17.50;99.90;;;;;;1958949;72;21101;-69
2021/07/23 08:09:58;;;;;;;19.98;12.20;;;17.50;99.90;;;;;;1916422;73;21500;-70
2021/07/23 08:12:23;;;;;;;21.45;11.55;;;17.60;99.90;;;;;;1883556;76;21161;-69
2021/07/23 08:14:51;;;;;;;22.30;11.30;;;17.60;99.90;;;;;;1884988;74;21087;-69
2021/07/23 08:17:20;;;;;;;16.52;11.53;;;17.50;99.90;;;;;;1921318;73;21069;-68
2021/07/23 08:19:47;;;;;;;20.02;11.12;;;17.60;99.90;;;;;;1965611;73;21067;-68
2021/07/23 08:22:15;;;;;;;20.52;11.05;;;17.60;99.90;;;;;;1959221;72;21085;-69
2021/07/23 08:24:42;;;;;;;17.85;9.98;;;17.60;99.90;;;;;;1955562;73;21073;-69
2021/07/23 08:27:10;;;;;;;17.75;9.63;;;17.60;99.90;;;;;;1960313;72;21211;-69
2021/07/23 08:29:38;;;;;;;17.12;10.85;;;17.60;99.90;;;;;;1964676;72;21096;-69
2021/07/23 08:32:13;;;;;;;18.80;10.93;;;17.70;99.90;;;;;;1967389;71;21106;-69
2021/07/23 08:34:41;;;;;;;15.88;10.35;;;17.70;99.90;;;;;;1958963;72;21159;-69
2021/07/23 08:37:08;;;;;;;17.85;10.88;;;17.80;99.90;;;;;;1963782;71;21516;-69
2021/07/23 08:39:36;;;;;;;19.12;11.05;;;17.70;99.90;;;;;;1961850;71;21606;-69
2021/07/23 08:42:30;;;;;;;16.82;10.53;;;17.70;99.90;;;;;;1959812;72;21171;-69
2021/07/23 08:44:59;;;;;;;18.10;10.85;;;17.80;99.90;;;;;;1957465;72;21218;-68
2021/07/23 08:47:27;;;;;;;14.40;10.63;;;17.80;99.90;;;;;;1954942;71;21615;-68
2021/07/23 08:49:55;;;;;;;16.95;11.35;;;17.80;99.90;;;;;;1962871;72;20996;-68
2021/07/23 08:52:46;;;;;;;21.52;11.10;;;17.80;99.90;;;;;;1954672;72;21244;-68
2021/07/23 08:55:16;;;;;;;17.02;10.63;;;18.00;99.90;;;;;;1951828;71;21095;-69
2021/07/23 08:57:44;;;;;;;14.60;10.38;;;18.00;99.90;;;;;;1955443;72;21135;-69
2021/07/23 09:00:14;;;;;;;22.02;11.78;;;18.00;99.90;;;;;;1957072;71;21036;-69
2021/07/23 09:03:02;;;;;;;20.05;11.90;;;18.00;99.90;;;;;;1960566;71;21617;-70
2021/07/23 09:05:37;;;;;;;18.62;11.45;;;18.00;99.90;;;;;;1936804;72;21080;-69
2021/07/23 09:08:15;;;;;;;19.77;11.48;;;18.00;99.90;;;;;;1958619;72;21073;-69
2021/07/23 09:10:44;;;;;;;21.48;12.05;;;18.00;99.90;;;;;;1949765;71;21050;-68
2021/07/23 09:13:14;;;;;;;21.23;12.13;;;18.00;99.90;;;;;;1954445;72;21111;-69
2021/07/23 09:15:44;;;;;;;22.00;12.80;;;17.90;99.90;;;;;;1948052;72;21101;-68
2021/07/23 09:18:35;;;;;;;25.17;16.23;;;17.90;99.90;;;;;;1945847;72;21144;-71
2021/07/23 09:21:05;;;;;;;23.52;15.25;;;17.80;99.90;;;;;;1946324;72;21511;-70
2021/07/23 09:23:37;;;;;;;36.73;22.45;;;17.80;99.90;;;;;;1947650;73;21427;-70
2021/07/23 09:26:14;;;;;;;35.43;22.45;;;17.80;99.90;;;;;;1947312;71;21545;-69
2021/07/23 09:28:49;;;;;;;40.78;24.65;;;17.80;99.90;;;;;;1947834;71;21136;-69
2021/07/23 09:31:24;;;;;;;34.85;22.98;;;17.80;99.90;;;;;;1944957;72;21262;-70
2021/07/23 09:33:53;;;;;;;34.48;22.50;;;17.80;99.90;;;;;;1949876;71;21093;-69
2021/07/23 09:36:21;;;;;;;34.13;21.62;;;17.80;99.90;;;;;;1948684;71;21084;-70
2021/07/23 09:38:49;;;;;;;35.08;22.02;;;17.80;99.90;;;;;;1948068;71;21078;-70
2021/07/23 09:41:25;;;;;;;35.50;21.48;;;17.90;99.90;;;;;;1948833;72;21808;-69
2021/07/23 09:44:05;;;;;;;29.63;20.00;;;17.90;99.90;;;;;;1948554;72;21216;-69
2021/07/23 09:46:42;;;;;;;26.45;19.37;;;18.00;99.90;;;;;;1948648;73;21081;-70
2021/07/23 09:49:22;;;;;;;27.07;19.12;;;18.10;99.90;;;;;;1947764;72;21583;-70
2021/07/23 09:51:55;;;;;;;28.27;18.30;;;18.00;99.90;;;;;;1948604;73;21157;-70
2021/07/23 09:54:22;;;;;;;27.50;17.07;;;18.10;99.90;;;;;;1948792;71;21101;-69
2021/07/23 09:56:50;;;;;;;27.22;17.50;;;18.10;99.90;;;;;;1948807;72;21110;-69
2021/07/23 09:59:24;;;;;;;26.40;17.07;;;18.10;99.90;;;;;;1948793;72;21617;-69
2021/07/23 10:01:54;;;;;;;30.43;17.32;;;18.10;99.90;;;;;;1948860;71;21148;-70
2021/07/23 10:04:31;;;;;;;22.80;16.67;;;18.20;99.90;;;;;;1948514;73;21202;-70
2021/07/23 10:07:01;;;;;;;25.77;17.15;;;18.20;99.90;;;;;;1947848;71;21093;-70
2021/07/23 10:09:31;;;;;;;23.50;17.52;;;18.20;99.90;;;;;;1909478;73;21114;-69
2021/07/23 10:12:00;;;;;;;23.80;17.77;;;18.20;99.90;;;;;;1950036;72;21148;-70
2021/07/23 10:14:31;;;;;;;25.45;17.75;;;18.20;99.90;;;;;;1946666;72;21170;-71
2021/07/23 10:16:58;;;;;;;21.33;15.40;;;18.20;99.90;;;;;;1948999;73;21200;-70
2021/07/23 10:19:27;;;;;;;26.62;16.37;;;18.20;99.90;;;;;;1950906;73;21097;-70
2021/07/23 10:21:56;;;;;;;23.30;15.98;;;18.20;99.90;;;;;;1948176;73;21607;-69
2021/07/23 10:24:30;;;;;;;21.17;15.60;;;18.20;99.90;;;;;;1948843;71;21094;-70
2021/07/23 10:26:55;;;;;;;23.62;15.43;;;18.20;99.90;;;;;;1948120;72;21089;-70
2021/07/23 10:29:48;;;;;;;20.05;15.13;;;18.20;99.90;;;;;;1948728;72;21574;-70
2021/07/23 10:32:27;;;;;;;26.48;15.10;;;18.10;99.90;;;;;;1949966;73;21109;-69
2021/07/23 10:34:59;;;;;;;18.80;15.00;;;18.10;99.90;;;;;;1950021;73;21113;-70
2021/07/23 10:37:31;;;;;;;;;;;18.20;99.90;;;;;;1960857;72;21061;-70
2021/07/23 10:40:12;;;;;;;15.15;12.65;;;18.30;99.90;;;;;;1961600;71;20147;-68
2021/07/23 10:42:42;;;;;;;16.52;12.43;;;18.30;99.90;;;;;;1951959;71;21530;-69
2021/07/23 10:45:14;;;;;;;17.80;12.05;;;18.40;99.90;;;;;;1949696;71;21125;-69
2021/07/23 10:47:45;;;;;;;15.18;12.35;;;18.40;99.90;;;;;;1964928;72;21155;-70
2021/07/23 10:50:28;;;;;;;20.48;12.05;;;18.40;99.90;;;;;;1952823;73;21155;-69
2021/07/23 10:52:56;;;;;;;18.57;11.55;;;18.40;99.90;;;;;;1954351;72;21567;-70
2021/07/23 10:55:28;;;;;;;11.28;9.83;;;18.40;99.90;;;;;;1955276;72;21058;-70
2021/07/23 10:58:11;;;;;;;11.97;9.70;;;18.40;99.90;;;;;;1955764;72;21484;-69
2021/07/23 11:00:50;;;;;;;13.30;9.30;;;18.40;99.90;;;;;;1947143;71;21948;-69
2021/07/23 11:03:42;;;;;;;12.70;9.15;;;18.40;99.90;;;;;;1950190;72;21085;-70
2021/07/23 11:06:18;;;;;;;10.82;8.85;;;18.40;99.90;;;;;;1959512;72;21556;-70
2021/07/23 11:08:51;;;;;;;11.90;8.38;;;18.50;99.90;;;;;;1955804;72;21089;-69
2021/07/23 11:11:20;;;;;;;8.48;5.78;;;18.50;99.90;;;;;;1957681;71;21137;-70
2021/07/23 11:13:48;;;;;;;6.95;5.25;;;18.50;99.90;;;;;;1956376;72;21497;-70
2021/07/23 11:16:17;;;;;;;6.45;5.35;;;18.40;99.90;;;;;;1958098;73;21034;-70
2021/07/23 11:18:56;;;;;;;7.92;4.70;;;18.40;99.90;;;;;;1955728;72;21449;-69
2021/07/23 11:21:25;;;;;;;9.23;4.65;;;18.30;99.90;;;;;;1955855;73;21555;-71
2021/07/23 11:23:52;;;;;;;7.47;4.65;;;18.30;99.90;;;;;;1952302;71;21094;-71
2021/07/23 11:26:25;;;;;;;8.60;4.83;;;18.20;99.90;;;;;;1957746;72;21073;-70
2021/07/23 11:28:56;;;;;;;7.37;4.80;;;18.30;99.90;;;;;;1960744;72;21594;-70
2021/07/23 11:31:40;;;;;;;6.97;4.95;;;18.20;99.90;;;;;;1955381;72;21128;-69
2021/07/23 11:34:26;;;;;;;8.15;5.05;;;18.30;99.90;;;;;;1957133;72;21636;-71
2021/07/23 11:36:55;;;;;;;6.90;4.58;;;18.30;99.90;;;;;;1951281;71;21353;-68
2021/07/23 11:39:25;;;;;;;6.50;4.80;;;18.40;99.90;;;;;;1950912;72;21097;-68
2021/07/23 11:42:00;;;;;;;6.05;4.17;;;18.50;99.90;;;;;;1961069;72;21587;-68
2021/07/23 11:44:28;;;;;;;7.70;4.22;;;18.80;99.90;;;;;;1964930;73;21591;-68
2021/07/23 11:46:56;;;;;;;6.25;4.25;;;18.80;99.90;;;;;;1954214;73;22200;-68
2021/07/23 11:49:25;;;;;;;6.05;4.42;;;18.90;99.90;;;;;;1960179;71;21502;-68
2021/07/23 11:51:52;;;;;;;7.22;3.98;;;19.00;99.90;;;;;;1941172;73;21122;-68
2021/07/23 11:54:20;;;;;;;6.50;3.95;;;19.10;99.90;;;;;;1951861;71;21191;-68
2021/07/23 11:56:48;;;;;;;3.92;3.17;;;19.20;99.90;;;;;;1955674;71;22100;-67
2021/07/23 11:59:16;;;;;;;3.92;2.90;;;19.30;99.90;;;;;;1957910;72;21500;-68
2021/07/23 12:01:43;;;;;;;6.22;3.52;;;19.60;99.90;;;;;;1960951;71;21668;-68
2021/07/23 12:04:11;;;;;;;3.72;2.80;;;19.70;99.90;;;;;;1952591;72;21097;-68
2021/07/23 12:06:44;;;;;;;4.47;3.27;;;19.70;99.90;;;;;;1959471;71;21085;-67
2021/07/23 12:09:10;;;;;;;4.95;3.17;;;19.90;99.90;;;;;;1969234;72;21138;-68
2021/07/23 12:11:38;;;;;;;6.10;4.05;;;20.20;99.90;;;;;;1964258;72;21180;-68
2021/07/23 12:14:11;;;;;;;5.35;4.05;;;20.10;99.90;;;;;;1960341;72;21671;-68
2021/07/23 12:16:39;;;;;;;5.50;4.00;;;20.10;99.90;;;;;;1956661;72;21630;-68
2021/07/23 12:19:11;;;;;;;5.53;3.80;;;19.80;99.90;;;;;;1950834;71;21084;-69
2021/07/23 12:21:40;;;;;;;5.17;3.50;;;19.60;99.90;;;;;;1958063;72;21131;-68
2021/07/23 12:24:09;;;;;;;5.12;3.50;;;19.50;99.90;;;;;;1958438;72;21124;-69
2021/07/23 12:26:38;;;;;;;5.03;3.70;;;19.40;99.90;;;;;;1953567;72;21038;-69
2021/07/23 12:29:08;;;;;;;5.53;4.12;;;19.30;99.90;;;;;;1959305;72;21082;-69
2021/07/23 12:31:37;;;;;;;9.23;4.75;;;19.10;99.90;;;;;;1955642;72;21116;-69
2021/07/23 12:34:10;;;;;;;6.72;4.80;;;19.00;99.90;;;;;;1953740;72;21014;-69
2021/07/23 12:36:47;;;;;;;7.17;4.90;;;19.00;99.90;;;;;;1953834;72;21006;-69
2021/07/23 12:39:16;;;;;;;6.58;4.67;;;18.90;99.90;;;;;;1958291;72;21093;-71
2021/07/23 12:41:45;;;;;;;7.12;4.60;;;18.90;99.90;;;;;;1957195;72;21066;-70
2021/07/23 12:44:13;;;;;;;9.50;4.70;;;18.90;99.90;;;;;;1955574;71;21092;-70
2021/07/23 12:46:51;;;;;;;6.37;4.85;;;18.90;99.90;;;;;;1950122;71;21009;-69